sensor_id;sensor_type;location;lat;lon;timestamp;temperature;humidity
70368;DHT22;57789;53.868;10.728;2024-03-02T00:00:22;10.10;99.90
70368;DHT22;57789;53.868;10.728;2024-03-02T00:02:49;10.20;99.90
70368;DHT22;57789;53.868;10.728;2024-03-02T00:05:19;10.30;99.90
70368;DHT22;57789;53.868;10.728;2024-03-02T00:07:54;10.20;99.90
70368;DHT22;57789;53.868;10.728;2024-03-02T00:10:23;9.90;99.90
70368;DHT22;57789;53.868;10.728;2024-03-02T00:12:54;9.90;99.90
70368;DHT22;57789;53.868;10.728;2024-03-02T00:17:56;9.90;99.90
70368;DHT22;57789;53.868;10.728;2024-03-02T00:20:23;9.90;99.90
70368;DHT22;57789;53.868;10.728;2024-03-02T00:22:53;9.80;99.90
70368;DHT22;57789;53.868;10.728;2024-03-02T00:25:21;10.00;99.90
70368;DHT22;57789;53.868;10.728;2024-03-02T00:27:50;10.00;99.90
70368;DHT22;57789;53.868;10.728;2024-03-02T00:33:06;10.20;99.90
70368;DHT22;57789;53.868;10.728;2024-03-02T00:35:33;10.20;99.90
70368;DHT22;57789;53.868;10.728;2024-03-02T00:38:06;10.30;99.90
70368;DHT22;57789;53.868;10.728;2024-03-02T00:40:32;10.20;99.90
70368;DHT22;57789;53.868;10.728;2024-03-02T00:42:58;10.20;99.90
70368;DHT22;57789;53.868;10.728;2024-03-02T00:45:25;10.20;99.90
70368;DHT22;57789;53.868;10.728;2024-03-02T00:47:54;10.20;99.90
70368;DHT22;57789;53.868;10.728;2024-03-02T00:50:20;10.10;99.90
70368;DHT22;57789;53.868;10.728;2024-03-02T00:52:47;10.10;99.90
70368;DHT22;57789;53.868;10.728;2024-03-02T00:55:15;10.00;99.90
70368;DHT22;57789;53.868;10.728;2024-03-02T00:57:41;10.10;99.90
70368;DHT22;57789;53.868;10.728;2024-03-02T01:00:08;10.00;99.90
70368;DHT22;57789;53.868;10.728;2024-03-02T01:02:36;10.00;99.90
70368;DHT22;57789;53.868;10.728;2024-03-02T01:05:03;10.10;99.90
70368;DHT22;57789;53.868;10.728;2024-03-02T01:07:30;10.10;99.90
70368;DHT22;57789;53.868;10.728;2024-03-02T01:09:56;10.10;99.90
70368;DHT22;57789;53.868;10.728;2024-03-02T01:12:22;10.10;99.90
70368;DHT22;57789;53.868;10.728;2024-03-02T01:14:47;10.00;99.90
70368;DHT22;57789;53.868;10.728;2024-03-02T01:17:13;10.00;99.90
70368;DHT22;57789;53.868;10.728;2024-03-02T01:19:41;10.00;99.90
70368;DHT22;57789;53.868;10.728;2024-03-02T01:22:07;10.10;99.90
70368;DHT22;57789;53.868;10.728;2024-03-02T01:24:33;10.10;99.90
70368;DHT22;57789;53.868;10.728;2024-03-02T01:26:59;10.10;99.90
70368;DHT22;57789;53.868;10.728;2024-03-02T01:29:25;10.00;99.90
70368;DHT22;57789;53.868;10.728;2024-03-02T01:31:50;9.90;99.90
70368;DHT22;57789;53.868;10.728;2024-03-02T01:34:17;9.80;99.90
70368;DHT22;57789;53.868;10.728;2024-03-02T01:36:42;9.70;99.90
70368;DHT22;57789;53.868;10.728;2024-03-02T01:39:08;9.70;99.90
70368;DHT22;57789;53.868;10.728;2024-03-02T01:41:35;9.80;99.90
70368;DHT22;57789;53.868;10.728;2024-03-02T01:44:00;9.80;99.90
70368;DHT22;57789;53.868;10.728;2024-03-02T01:46:26;9.90;99.90
70368;DHT22;57789;53.868;10.728;2024-03-02T01:48:52;9.90;99.90
70368;DHT22;57789;53.868;10.728;2024-03-02T01:51:18;9.90;99.90
70368;DHT22;57789;53.868;10.728;2024-03-02T01:53:43;9.90;99.90
70368;DHT22;57789;53.868;10.728;2024-03-02T01:56:09;9.70;99.90
70368;DHT22;57789;53.868;10.728;2024-03-02T01:58:35;9.40;99.90
70368;DHT22;57789;53.868;10.728;2024-03-02T02:01:01;9.40;99.90
70368;DHT22;57789;53.868;10.728;2024-03-02T02:03:27;9.60;99.90
70368;DHT22;57789;53.868;10.728;2024-03-02T02:05:53;9.60;99.90
70368;DHT22;57789;53.868;10.728;2024-03-02T02:08:19;9.60;99.90
70368;DHT22;57789;53.868;10.728;2024-03-02T02:10:44;9.60;99.90
70368;DHT22;57789;53.868;10.728;2024-03-02T02:13:10;9.70;99.90
70368;DHT22;57789;53.868;10.728;2024-03-02T02:15:36;9.60;99.90
70368;DHT22;57789;53.868;10.728;2024-03-02T02:18:02;9.70;99.90
70368;DHT22;57789;53.868;10.728;2024-03-02T02:20:29;9.70;99.90
70368;DHT22;57789;53.868;10.728;2024-03-02T02:23:01;9.80;99.90
70368;DHT22;57789;53.868;10.728;2024-03-02T02:25:28;9.90;99.90
70368;DHT22;57789;53.868;10.728;2024-03-02T02:27:55;9.70;99.90
70368;DHT22;57789;53.868;10.728;2024-03-02T02:30:31;9.80;99.90
70368;DHT22;57789;53.868;10.728;2024-03-02T02:32:58;9.70;99.90
70368;DHT22;57789;53.868;10.728;2024-03-02T02:35:24;9.70;99.90
70368;DHT22;57789;53.868;10.728;2024-03-02T02:37:50;9.80;99.90
70368;DHT22;57789;53.868;10.728;2024-03-02T02:40:17;9.80;99.90
70368;DHT22;57789;53.868;10.728;2024-03-02T02:42:44;9.90;99.90
70368;DHT22;57789;53.868;10.728;2024-03-02T02:45:10;9.90;99.90
70368;DHT22;57789;53.868;10.728;2024-03-02T02:47:38;9.90;99.90
70368;DHT22;57789;53.868;10.728;2024-03-02T02:50:04;9.80;99.90
70368;DHT22;57789;53.868;10.728;2024-03-02T02:52:38;9.70;99.90
70368;DHT22;57789;53.868;10.728;2024-03-02T02:55:12;9.50;99.90
70368;DHT22;57789;53.868;10.728;2024-03-02T02:57:40;9.50;99.90
70368;DHT22;57789;53.868;10.728;2024-03-02T03:00:12;9.40;99.90
70368;DHT22;57789;53.868;10.728;2024-03-02T03:02:48;9.40;99.90
70368;DHT22;57789;53.868;10.728;2024-03-02T03:05:15;9.40;99.90
70368;DHT22;57789;53.868;10.728;2024-03-02T03:07:41;9.50;99.90
70368;DHT22;57789;53.868;10.728;2024-03-02T03:10:08;9.50;99.90
70368;DHT22;57789;53.868;10.728;2024-03-02T03:12:34;9.40;99.90
70368;DHT22;57789;53.868;10.728;2024-03-02T03:15:00;9.40;99.90
70368;DHT22;57789;53.868;10.728;2024-03-02T03:17:26;9.50;99.90
70368;DHT22;57789;53.868;10.728;2024-03-02T03:19:55;9.30;99.90
70368;DHT22;57789;53.868;10.728;2024-03-02T03:22:20;9.40;99.90
70368;DHT22;57789;53.868;10.728;2024-03-02T03:24:46;9.30;99.90
70368;DHT22;57789;53.868;10.728;2024-03-02T03:27:12;9.10;99.90
70368;DHT22;57789;53.868;10.728;2024-03-02T03:29:38;8.90;99.90
70368;DHT22;57789;53.868;10.728;2024-03-02T03:32:04;8.90;99.90
70368;DHT22;57789;53.868;10.728;2024-03-02T03:34:35;8.90;99.90
70368;DHT22;57789;53.868;10.728;2024-03-02T03:37:01;9.00;99.90
70368;DHT22;57789;53.868;10.728;2024-03-02T03:39:27;9.00;99.90
70368;DHT22;57789;53.868;10.728;2024-03-02T03:41:54;9.10;99.90
70368;DHT22;57789;53.868;10.728;2024-03-02T03:44:19;9.10;99.90
70368;DHT22;57789;53.868;10.728;2024-03-02T03:46:45;9.10;99.90
70368;DHT22;57789;53.868;10.728;2024-03-02T03:49:11;9.20;99.90
70368;DHT22;57789;53.868;10.728;2024-03-02T03:51:37;9.20;99.90
70368;DHT22;57789;53.868;10.728;2024-03-02T03:54:02;9.20;99.90
70368;DHT22;57789;53.868;10.728;2024-03-02T03:56:28;9.20;99.90
70368;DHT22;57789;53.868;10.728;2024-03-02T03:58:54;9.20;99.90
70368;DHT22;57789;53.868;10.728;2024-03-02T04:01:20;9.30;99.90
70368;DHT22;57789;53.868;10.728;2024-03-02T04:03:48;9.30;99.90
70368;DHT22;57789;53.868;10.728;2024-03-02T04:06:13;9.30;99.90
70368;DHT22;57789;53.868;10.728;2024-03-02T04:08:41;9.40;99.90
70368;DHT22;57789;53.868;10.728;2024-03-02T04:11:07;9.30;99.90
70368;DHT22;57789;53.868;10.728;2024-03-02T04:13:33;9.30;99.90
70368;DHT22;57789;53.868;10.728;2024-03-02T04:15:59;9.20;99.90
70368;DHT22;57789;53.868;10.728;2024-03-02T04:18:25;9.20;99.90
70368;DHT22;57789;53.868;10.728;2024-03-02T04:20:50;9.30;99.90
70368;DHT22;57789;53.868;10.728;2024-03-02T04:23:16;9.00;99.90
70368;DHT22;57789;53.868;10.728;2024-03-02T04:25:42;8.80;99.90
70368;DHT22;57789;53.868;10.728;2024-03-02T04:28:08;8.70;99.90
70368;DHT22;57789;53.868;10.728;2024-03-02T04:30:33;8.80;99.90
70368;DHT22;57789;53.868;10.728;2024-03-02T04:32:59;8.80;99.90
70368;DHT22;57789;53.868;10.728;2024-03-02T04:35:25;8.80;99.90
70368;DHT22;57789;53.868;10.728;2024-03-02T04:37:51;8.80;99.90
70368;DHT22;57789;53.868;10.728;2024-03-02T04:40:16;9.00;99.90
70368;DHT22;57789;53.868;10.728;2024-03-02T04:42:42;9.10;99.90
70368;DHT22;57789;53.868;10.728;2024-03-02T04:45:08;9.30;99.90
70368;DHT22;57789;53.868;10.728;2024-03-02T04:47:34;9.40;99.90
70368;DHT22;57789;53.868;10.728;2024-03-02T04:50:00;9.50;99.90
70368;DHT22;57789;53.868;10.728;2024-03-02T04:52:26;9.50;99.90
70368;DHT22;57789;53.868;10.728;2024-03-02T04:54:51;9.50;99.90
70368;DHT22;57789;53.868;10.728;2024-03-02T04:57:42;9.50;99.90
70368;DHT22;57789;53.868;10.728;2024-03-02T05:00:09;9.60;99.90
70368;DHT22;57789;53.868;10.728;2024-03-02T05:02:35;9.70;99.90
70368;DHT22;57789;53.868;10.728;2024-03-02T05:05:01;9.80;99.90
70368;DHT22;57789;53.868;10.728;2024-03-02T05:07:28;9.70;99.90
70368;DHT22;57789;53.868;10.728;2024-03-02T05:09:54;9.60;99.90
70368;DHT22;57789;53.868;10.728;2024-03-02T05:12:19;9.70;99.90
70368;DHT22;57789;53.868;10.728;2024-03-02T05:15:04;9.60;99.90
70368;DHT22;57789;53.868;10.728;2024-03-02T05:17:30;9.40;99.90
70368;DHT22;57789;53.868;10.728;2024-03-02T05:19:55;9.50;99.90
70368;DHT22;57789;53.868;10.728;2024-03-02T05:22:21;9.50;99.90
70368;DHT22;57789;53.868;10.728;2024-03-02T05:24:47;9.50;99.90
70368;DHT22;57789;53.868;10.728;2024-03-02T05:27:12;9.50;99.90
70368;DHT22;57789;53.868;10.728;2024-03-02T05:29:38;9.50;99.90
70368;DHT22;57789;53.868;10.728;2024-03-02T05:32:04;9.50;99.90
70368;DHT22;57789;53.868;10.728;2024-03-02T05:34:29;9.30;99.90
70368;DHT22;57789;53.868;10.728;2024-03-02T05:36:56;9.10;99.90
70368;DHT22;57789;53.868;10.728;2024-03-02T05:39:23;8.80;99.90
70368;DHT22;57789;53.868;10.728;2024-03-02T05:41:49;8.90;99.90
70368;DHT22;57789;53.868;10.728;2024-03-02T05:44:14;9.00;99.90
70368;DHT22;57789;53.868;10.728;2024-03-02T05:46:41;8.90;99.90
70368;DHT22;57789;53.868;10.728;2024-03-02T05:49:07;8.90;99.90
70368;DHT22;57789;53.868;10.728;2024-03-02T05:51:33;8.90;99.90
70368;DHT22;57789;53.868;10.728;2024-03-02T05:53:59;8.90;99.90
70368;DHT22;57789;53.868;10.728;2024-03-02T05:56:25;8.90;99.90
70368;DHT22;57789;53.868;10.728;2024-03-02T05:58:50;9.00;99.90
70368;DHT22;57789;53.868;10.728;2024-03-02T06:01:35;8.70;99.90
70368;DHT22;57789;53.868;10.728;2024-03-02T06:04:00;8.60;99.90
70368;DHT22;57789;53.868;10.728;2024-03-02T06:06:26;8.70;99.90
70368;DHT22;57789;53.868;10.728;2024-03-02T06:08:52;8.60;99.90
70368;DHT22;57789;53.868;10.728;2024-03-02T06:11:21;8.70;99.90
70368;DHT22;57789;53.868;10.728;2024-03-02T06:13:47;8.80;99.90
70368;DHT22;57789;53.868;10.728;2024-03-02T06:16:13;8.70;99.90
70368;DHT22;57789;53.868;10.728;2024-03-02T06:18:39;8.90;99.90
70368;DHT22;57789;53.868;10.728;2024-03-02T06:21:05;8.90;99.90
70368;DHT22;57789;53.868;10.728;2024-03-02T06:23:30;8.60;99.90
70368;DHT22;57789;53.868;10.728;2024-03-02T06:25:56;8.70;99.90
70368;DHT22;57789;53.868;10.728;2024-03-02T06:28:22;8.80;99.90
70368;DHT22;57789;53.868;10.728;2024-03-02T06:30:47;8.80;99.90
70368;DHT22;57789;53.868;10.728;2024-03-02T06:33:13;8.80;99.90
70368;DHT22;57789;53.868;10.728;2024-03-02T06:35:39;8.80;99.90
70368;DHT22;57789;53.868;10.728;2024-03-02T06:38:05;8.70;99.90
70368;DHT22;57789;53.868;10.728;2024-03-02T06:40:30;8.70;99.90
70368;DHT22;57789;53.868;10.728;2024-03-02T06:42:56;8.80;99.90
70368;DHT22;57789;53.868;10.728;2024-03-02T06:45:22;8.90;99.90
70368;DHT22;57789;53.868;10.728;2024-03-02T06:47:48;8.90;99.90
70368;DHT22;57789;53.868;10.728;2024-03-02T06:50:14;8.80;99.90
70368;DHT22;57789;53.868;10.728;2024-03-02T06:52:39;8.70;99.90
70368;DHT22;57789;53.868;10.728;2024-03-02T06:55:06;8.60;99.90
70368;DHT22;57789;53.868;10.728;2024-03-02T06:57:32;8.80;99.90
70368;DHT22;57789;53.868;10.728;2024-03-02T06:59:58;8.70;99.90
70368;DHT22;57789;53.868;10.728;2024-03-02T07:02:24;8.60;99.90
70368;DHT22;57789;53.868;10.728;2024-03-02T07:04:53;8.50;99.90
70368;DHT22;57789;53.868;10.728;2024-03-02T07:07:19;8.40;99.90
70368;DHT22;57789;53.868;10.728;2024-03-02T07:09:46;8.40;99.90
70368;DHT22;57789;53.868;10.728;2024-03-02T07:12:11;8.50;99.90
70368;DHT22;57789;53.868;10.728;2024-03-02T07:14:37;8.40;99.90
70368;DHT22;57789;53.868;10.728;2024-03-02T07:17:33;8.30;99.90
70368;DHT22;57789;53.868;10.728;2024-03-02T07:19:59;8.30;99.90
70368;DHT22;57789;53.868;10.728;2024-03-02T07:22:25;8.30;99.90
70368;DHT22;57789;53.868;10.728;2024-03-02T07:24:51;8.20;99.90
70368;DHT22;57789;53.868;10.728;2024-03-02T07:27:17;8.30;99.90
70368;DHT22;57789;53.868;10.728;2024-03-02T07:29:43;8.40;99.90
70368;DHT22;57789;53.868;10.728;2024-03-02T07:32:10;8.50;99.90
70368;DHT22;57789;53.868;10.728;2024-03-02T07:34:36;8.60;99.90
70368;DHT22;57789;53.868;10.728;2024-03-02T07:37:03;8.70;99.90
70368;DHT22;57789;53.868;10.728;2024-03-02T07:39:29;8.70;99.90
70368;DHT22;57789;53.868;10.728;2024-03-02T07:41:55;8.70;99.90
70368;DHT22;57789;53.868;10.728;2024-03-02T07:44:22;8.70;99.90
70368;DHT22;57789;53.868;10.728;2024-03-02T07:46:48;8.80;99.90
70368;DHT22;57789;53.868;10.728;2024-03-02T07:49:20;8.80;99.90
70368;DHT22;57789;53.868;10.728;2024-03-02T07:51:46;8.90;99.90
70368;DHT22;57789;53.868;10.728;2024-03-02T07:54:11;8.90;99.90
70368;DHT22;57789;53.868;10.728;2024-03-02T07:56:37;9.20;99.90
70368;DHT22;57789;53.868;10.728;2024-03-02T07:59:06;9.30;99.90
70368;DHT22;57789;53.868;10.728;2024-03-02T08:01:33;9.30;99.90
70368;DHT22;57789;53.868;10.728;2024-03-02T08:04:00;9.30;99.90
70368;DHT22;57789;53.868;10.728;2024-03-02T08:06:27;9.20;99.90
70368;DHT22;57789;53.868;10.728;2024-03-02T08:08:54;9.30;99.90
70368;DHT22;57789;53.868;10.728;2024-03-02T08:11:21;9.20;99.90
70368;DHT22;57789;53.868;10.728;2024-03-02T08:13:47;9.20;99.90
70368;DHT22;57789;53.868;10.728;2024-03-02T08:16:13;9.20;99.90
70368;DHT22;57789;53.868;10.728;2024-03-02T08:18:39;9.40;99.90
70368;DHT22;57789;53.868;10.728;2024-03-02T08:21:05;9.40;99.90
70368;DHT22;57789;53.868;10.728;2024-03-02T08:23:31;9.40;99.90
70368;DHT22;57789;53.868;10.728;2024-03-02T08:25:57;9.30;99.90
70368;DHT22;57789;53.868;10.728;2024-03-02T08:28:23;9.20;99.90
70368;DHT22;57789;53.868;10.728;2024-03-02T08:30:49;9.20;99.90
70368;DHT22;57789;53.868;10.728;2024-03-02T08:33:14;9.10;99.90
70368;DHT22;57789;53.868;10.728;2024-03-02T08:35:40;9.20;99.90
70368;DHT22;57789;53.868;10.728;2024-03-02T08:38:06;9.20;99.90
70368;DHT22;57789;53.868;10.728;2024-03-02T08:40:32;9.20;99.90
70368;DHT22;57789;53.868;10.728;2024-03-02T08:42:58;9.20;99.90
70368;DHT22;57789;53.868;10.728;2024-03-02T08:45:23;9.30;99.90
70368;DHT22;57789;53.868;10.728;2024-03-02T08:47:49;9.30;99.90
70368;DHT22;57789;53.868;10.728;2024-03-02T08:50:15;9.40;99.90
70368;DHT22;57789;53.868;10.728;2024-03-02T08:52:41;9.50;99.90
70368;DHT22;57789;53.868;10.728;2024-03-02T08:55:08;9.60;99.90
70368;DHT22;57789;53.868;10.728;2024-03-02T08:57:34;9.50;99.90
70368;DHT22;57789;53.868;10.728;2024-03-02T09:00:00;9.50;99.90
70368;DHT22;57789;53.868;10.728;2024-03-02T09:02:29;9.60;99.90
70368;DHT22;57789;53.868;10.728;2024-03-02T09:04:55;9.50;99.90
70368;DHT22;57789;53.868;10.728;2024-03-02T09:07:20;9.60;99.90
70368;DHT22;57789;53.868;10.728;2024-03-02T09:09:46;9.60;99.90
70368;DHT22;57789;53.868;10.728;2024-03-02T09:12:12;9.80;99.90
70368;DHT22;57789;53.868;10.728;2024-03-02T09:14:38;9.80;99.90
70368;DHT22;57789;53.868;10.728;2024-03-02T09:17:04;9.80;99.90
70368;DHT22;57789;53.868;10.728;2024-03-02T09:19:29;9.80;99.90
70368;DHT22;57789;53.868;10.728;2024-03-02T09:21:55;9.90;99.90
70368;DHT22;57789;53.868;10.728;2024-03-02T09:24:21;10.00;99.90
70368;DHT22;57789;53.868;10.728;2024-03-02T09:26:47;10.00;99.90
70368;DHT22;57789;53.868;10.728;2024-03-02T09:29:13;10.00;99.90
70368;DHT22;57789;53.868;10.728;2024-03-02T09:31:40;10.10;99.90
70368;DHT22;57789;53.868;10.728;2024-03-02T09:34:07;10.00;99.90
70368;DHT22;57789;53.868;10.728;2024-03-02T09:36:33;10.00;99.90
70368;DHT22;57789;53.868;10.728;2024-03-02T09:38:58;10.00;99.90
70368;DHT22;57789;53.868;10.728;2024-03-02T09:41:24;10.10;99.90
70368;DHT22;57789;53.868;10.728;2024-03-02T09:43:50;10.20;99.90
70368;DHT22;57789;53.868;10.728;2024-03-02T09:46:16;10.30;99.90
70368;DHT22;57789;53.868;10.728;2024-03-02T09:48:45;10.30;99.90
70368;DHT22;57789;53.868;10.728;2024-03-02T09:51:11;10.30;99.90
70368;DHT22;57789;53.868;10.728;2024-03-02T09:53:38;10.50;99.90
70368;DHT22;57789;53.868;10.728;2024-03-02T09:56:04;10.70;99.90
70368;DHT22;57789;53.868;10.728;2024-03-02T09:58:33;11.00;99.90
70368;DHT22;57789;53.868;10.728;2024-03-02T10:00:58;11.20;99.90
70368;DHT22;57789;53.868;10.728;2024-03-02T10:03:24;11.20;99.90
70368;DHT22;57789;53.868;10.728;2024-03-02T10:05:50;11.20;99.90
70368;DHT22;57789;53.868;10.728;2024-03-02T10:08:17;11.50;99.90
70368;DHT22;57789;53.868;10.728;2024-03-02T10:10:43;11.80;99.90
70368;DHT22;57789;53.868;10.728;2024-03-02T10:13:10;12.00;99.90
70368;DHT22;57789;53.868;10.728;2024-03-02T10:15:37;12.10;99.90
70368;DHT22;57789;53.868;10.728;2024-03-02T10:18:09;12.10;99.90
70368;DHT22;57789;53.868;10.728;2024-03-02T10:20:35;12.20;99.90
70368;DHT22;57789;53.868;10.728;2024-03-02T10:23:12;12.30;99.90
70368;DHT22;57789;53.868;10.728;2024-03-02T10:25:38;12.20;99.90
70368;DHT22;57789;53.868;10.728;2024-03-02T10:28:04;12.30;99.90
70368;DHT22;57789;53.868;10.728;2024-03-02T10:30:36;12.50;99.90
70368;DHT22;57789;53.868;10.728;2024-03-02T10:33:02;12.50;99.90
70368;DHT22;57789;53.868;10.728;2024-03-02T10:35:29;12.60;99.90
70368;DHT22;57789;53.868;10.728;2024-03-02T10:37:59;12.60;99.90
70368;DHT22;57789;53.868;10.728;2024-03-02T10:40:26;12.90;99.90
70368;DHT22;57789;53.868;10.728;2024-03-02T10:42:51;12.90;99.90
70368;DHT22;57789;53.868;10.728;2024-03-02T10:45:19;12.80;99.90
70368;DHT22;57789;53.868;10.728;2024-03-02T10:47:46;12.80;99.90
70368;DHT22;57789;53.868;10.728;2024-03-02T10:50:12;13.00;99.90
70368;DHT22;57789;53.868;10.728;2024-03-02T10:52:38;13.00;99.90
70368;DHT22;57789;53.868;10.728;2024-03-02T10:55:09;13.00;99.90
70368;DHT22;57789;53.868;10.728;2024-03-02T10:57:54;13.20;99.90
70368;DHT22;57789;53.868;10.728;2024-03-02T11:00:25;13.00;99.90
70368;DHT22;57789;53.868;10.728;2024-03-02T11:03:04;13.10;99.90
70368;DHT22;57789;53.868;10.728;2024-03-02T11:05:39;13.10;99.90
70368;DHT22;57789;53.868;10.728;2024-03-02T11:08:11;13.10;99.90
70368;DHT22;57789;53.868;10.728;2024-03-02T11:10:57;13.10;99.90
70368;DHT22;57789;53.868;10.728;2024-03-02T11:13:33;13.10;99.90
70368;DHT22;57789;53.868;10.728;2024-03-02T11:16:06;13.10;99.90
70368;DHT22;57789;53.868;10.728;2024-03-02T11:18:36;13.20;99.90
70368;DHT22;57789;53.868;10.728;2024-03-02T11:21:03;13.10;99.90
70368;DHT22;57789;53.868;10.728;2024-03-02T11:23:35;13.10;99.90
70368;DHT22;57789;53.868;10.728;2024-03-02T11:26:20;13.10;99.90
70368;DHT22;57789;53.868;10.728;2024-03-02T11:28:46;13.00;99.90
70368;DHT22;57789;53.868;10.728;2024-03-02T11:31:12;13.00;99.90
70368;DHT22;57789;53.868;10.728;2024-03-02T11:33:38;13.00;99.90
70368;DHT22;57789;53.868;10.728;2024-03-02T11:36:06;12.80;99.90
70368;DHT22;57789;53.868;10.728;2024-03-02T11:38:33;12.80;99.90
70368;DHT22;57789;53.868;10.728;2024-03-02T11:41:05;13.00;99.90
70368;DHT22;57789;53.868;10.728;2024-03-02T11:43:32;13.00;99.90
70368;DHT22;57789;53.868;10.728;2024-03-02T11:46:05;13.10;99.90
70368;DHT22;57789;53.868;10.728;2024-03-02T11:48:34;13.10;99.90
70368;DHT22;57789;53.868;10.728;2024-03-02T11:51:01;13.40;99.90
70368;DHT22;57789;53.868;10.728;2024-03-02T11:53:27;13.50;99.90
70368;DHT22;57789;53.868;10.728;2024-03-02T11:55:58;13.60;99.90
70368;DHT22;57789;53.868;10.728;2024-03-02T11:58:24;13.80;99.90
70368;DHT22;57789;53.868;10.728;2024-03-02T12:00:53;14.00;99.90
70368;DHT22;57789;53.868;10.728;2024-03-02T12:03:22;14.00;99.90
70368;DHT22;57789;53.868;10.728;2024-03-02T12:05:53;13.90;99.90
70368;DHT22;57789;53.868;10.728;2024-03-02T12:08:20;14.00;99.90
70368;DHT22;57789;53.868;10.728;2024-03-02T12:11:00;14.40;99.90
70368;DHT22;57789;53.868;10.728;2024-03-02T12:13:27;14.70;99.90
70368;DHT22;57789;53.868;10.728;2024-03-02T12:15:54;15.10;99.90
70368;DHT22;57789;53.868;10.728;2024-03-02T12:18:23;15.30;99.90
70368;DHT22;57789;53.868;10.728;2024-03-02T12:20:50;15.20;99.90
70368;DHT22;57789;53.868;10.728;2024-03-02T12:23:22;15.00;99.90
70368;DHT22;57789;53.868;10.728;2024-03-02T12:25:47;15.10;99.90
70368;DHT22;57789;53.868;10.728;2024-03-02T12:28:14;15.00;99.90
70368;DHT22;57789;53.868;10.728;2024-03-02T12:30:40;14.90;99.90
70368;DHT22;57789;53.868;10.728;2024-03-02T12:33:05;14.90;99.90
70368;DHT22;57789;53.868;10.728;2024-03-02T12:35:31;14.90;99.90
70368;DHT22;57789;53.868;10.728;2024-03-02T12:37:57;14.30;99.90
70368;DHT22;57789;53.868;10.728;2024-03-02T12:40:24;14.10;99.90
70368;DHT22;57789;53.868;10.728;2024-03-02T12:42:50;13.80;99.90
70368;DHT22;57789;53.868;10.728;2024-03-02T12:45:16;13.70;99.90
70368;DHT22;57789;53.868;10.728;2024-03-02T12:47:49;13.90;99.90
70368;DHT22;57789;53.868;10.728;2024-03-02T12:50:15;13.90;99.90
70368;DHT22;57789;53.868;10.728;2024-03-02T12:52:41;14.00;99.90
70368;DHT22;57789;53.868;10.728;2024-03-02T12:55:07;14.10;99.90
70368;DHT22;57789;53.868;10.728;2024-03-02T12:57:33;14.20;99.90
70368;DHT22;57789;53.868;10.728;2024-03-02T13:00:05;14.20;99.90
70368;DHT22;57789;53.868;10.728;2024-03-02T13:02:40;14.40;99.90
70368;DHT22;57789;53.868;10.728;2024-03-02T13:05:07;14.40;99.90
70368;DHT22;57789;53.868;10.728;2024-03-02T13:07:39;14.40;99.90
70368;DHT22;57789;53.868;10.728;2024-03-02T13:10:07;14.50;99.90
70368;DHT22;57789;53.868;10.728;2024-03-02T13:12:36;14.40;99.90
70368;DHT22;57789;53.868;10.728;2024-03-02T13:15:03;14.40;99.90
70368;DHT22;57789;53.868;10.728;2024-03-02T13:17:37;14.40;99.90
70368;DHT22;57789;53.868;10.728;2024-03-02T13:20:04;14.50;99.90
70368;DHT22;57789;53.868;10.728;2024-03-02T13:22:36;14.40;99.90
70368;DHT22;57789;53.868;10.728;2024-03-02T13:25:02;14.20;99.90
70368;DHT22;57789;53.868;10.728;2024-03-02T13:27:32;14.20;99.90
70368;DHT22;57789;53.868;10.728;2024-03-02T13:29:58;14.20;99.90
70368;DHT22;57789;53.868;10.728;2024-03-02T13:32:24;14.20;99.90
70368;DHT22;57789;53.868;10.728;2024-03-02T13:34:51;14.10;99.90
70368;DHT22;57789;53.868;10.728;2024-03-02T13:37:17;14.10;99.90
70368;DHT22;57789;53.868;10.728;2024-03-02T13:39:43;14.10;99.90
70368;DHT22;57789;53.868;10.728;2024-03-02T13:42:10;14.00;99.90
70368;DHT22;57789;53.868;10.728;2024-03-02T13:44:36;14.00;99.90
70368;DHT22;57789;53.868;10.728;2024-03-02T13:47:03;14.00;99.90
70368;DHT22;57789;53.868;10.728;2024-03-02T13:49:29;14.10;99.90
70368;DHT22;57789;53.868;10.728;2024-03-02T13:52:06;14.10;99.90
70368;DHT22;57789;53.868;10.728;2024-03-02T13:54:41;14.00;99.90
70368;DHT22;57789;53.868;10.728;2024-03-02T13:57:08;14.00;99.90
70368;DHT22;57789;53.868;10.728;2024-03-02T13:59:35;14.00;99.90
70368;DHT22;57789;53.868;10.728;2024-03-02T14:02:05;14.00;99.90
70368;DHT22;57789;53.868;10.728;2024-03-02T14:04:35;13.90;99.90
70368;DHT22;57789;53.868;10.728;2024-03-02T14:07:01;13.80;99.90
70368;DHT22;57789;53.868;10.728;2024-03-02T14:09:27;13.90;99.90
70368;DHT22;57789;53.868;10.728;2024-03-02T14:11:54;14.00;99.90
70368;DHT22;57789;53.868;10.728;2024-03-02T14:14:20;14.00;99.90
70368;DHT22;57789;53.868;10.728;2024-03-02T14:16:46;13.90;99.90
70368;DHT22;57789;53.868;10.728;2024-03-02T14:19:12;13.70;99.90
70368;DHT22;57789;53.868;10.728;2024-03-02T14:21:40;13.70;99.90
70368;DHT22;57789;53.868;10.728;2024-03-02T14:24:06;13.60;99.90
70368;DHT22;57789;53.868;10.728;2024-03-02T14:26:33;13.60;99.90
70368;DHT22;57789;53.868;10.728;2024-03-02T14:28:59;13.60;99.90
70368;DHT22;57789;53.868;10.728;2024-03-02T14:31:27;13.60;99.90
70368;DHT22;57789;53.868;10.728;2024-03-02T14:33:53;13.60;99.90
70368;DHT22;57789;53.868;10.728;2024-03-02T14:36:20;13.50;99.90
70368;DHT22;57789;53.868;10.728;2024-03-02T14:38:46;13.50;99.90
70368;DHT22;57789;53.868;10.728;2024-03-02T14:41:12;13.50;99.90
70368;DHT22;57789;53.868;10.728;2024-03-02T14:43:38;13.50;99.90
70368;DHT22;57789;53.868;10.728;2024-03-02T14:46:05;13.50;99.90
70368;DHT22;57789;53.868;10.728;2024-03-02T14:48:31;13.50;99.90
70368;DHT22;57789;53.868;10.728;2024-03-02T14:50:57;13.50;99.90
70368;DHT22;57789;53.868;10.728;2024-03-02T14:53:23;13.50;99.90
70368;DHT22;57789;53.868;10.728;2024-03-02T14:55:48;13.30;99.90
70368;DHT22;57789;53.868;10.728;2024-03-02T14:58:15;13.30;99.90
70368;DHT22;57789;53.868;10.728;2024-03-02T15:00:41;13.30;99.90
70368;DHT22;57789;53.868;10.728;2024-03-02T15:03:07;13.20;99.90
70368;DHT22;57789;53.868;10.728;2024-03-02T15:05:34;13.30;99.90
70368;DHT22;57789;53.868;10.728;2024-03-02T15:08:00;13.30;99.90
70368;DHT22;57789;53.868;10.728;2024-03-02T15:10:31;13.30;99.90
70368;DHT22;57789;53.868;10.728;2024-03-02T15:12:57;13.20;99.90
70368;DHT22;57789;53.868;10.728;2024-03-02T15:15:23;13.10;99.90
70368;DHT22;57789;53.868;10.728;2024-03-02T15:17:49;13.20;99.90
70368;DHT22;57789;53.868;10.728;2024-03-02T15:20:16;13.20;99.90
70368;DHT22;57789;53.868;10.728;2024-03-02T15:22:41;13.20;99.90
70368;DHT22;57789;53.868;10.728;2024-03-02T15:25:07;13.20;99.90
70368;DHT22;57789;53.868;10.728;2024-03-02T15:27:33;13.20;99.90
70368;DHT22;57789;53.868;10.728;2024-03-02T15:29:59;13.20;99.90